sensor_id;sensor_type;location;lat;lon;timestamp;temperature;humidity
39931;DHT22;26635;-35.248;149.138;2022-08-14T00:01:09;9.20;92.70
39931;DHT22;26635;-35.248;149.138;2022-08-14T00:03:50;9.20;93.10
39931;DHT22;26635;-35.248;149.138;2022-08-14T00:06:21;9.30;93.20
39931;DHT22;26635;-35.248;149.138;2022-08-14T00:08:56;9.40;93.20
39931;DHT22;26635;-35.248;149.138;2022-08-14T00:11:30;9.50;92.80
39931;DHT22;26635;-35.248;149.138;2022-08-14T00:14:03;9.70;92.20
39931;DHT22;26635;-35.248;149.138;2022-08-14T00:16:40;9.80;92.10
39931;DHT22;26635;-35.248;149.138;2022-08-14T00:19:12;10.00;91.50
39931;DHT22;26635;-35.248;149.138;2022-08-14T00:21:48;10.20;91.60
39931;DHT22;26635;-35.248;149.138;2022-08-14T00:24:21;10.40;90.50
39931;DHT22;26635;-35.248;149.138;2022-08-14T00:26:57;10.50;89.00
39931;DHT22;26635;-35.248;149.138;2022-08-14T00:29:31;10.50;88.20
39931;DHT22;26635;-35.248;149.138;2022-08-14T00:32:08;10.50;88.90
39931;DHT22;26635;-35.248;149.138;2022-08-14T00:34:58;10.50;88.10
39931;DHT22;26635;-35.248;149.138;2022-08-14T00:37:30;10.50;88.90
39931;DHT22;26635;-35.248;149.138;2022-08-14T00:40:04;10.40;90.20
39931;DHT22;26635;-35.248;149.138;2022-08-14T00:42:55;10.30;90.10
39931;DHT22;26635;-35.248;149.138;2022-08-14T00:45:26;10.20;90.40
39931;DHT22;26635;-35.248;149.138;2022-08-14T00:47:57;10.10;90.20
39931;DHT22;26635;-35.248;149.138;2022-08-14T00:50:28;9.90;90.70
39931;DHT22;26635;-35.248;149.138;2022-08-14T00:53:05;9.80;91.70
39931;DHT22;26635;-35.248;149.138;2022-08-14T00:55:38;9.80;92.20
39931;DHT22;26635;-35.248;149.138;2022-08-14T00:58:20;9.70;92.70
39931;DHT22;26635;-35.248;149.138;2022-08-14T01:01:06;9.80;93.10
39931;DHT22;26635;-35.248;149.138;2022-08-14T01:03:44;9.80;93.20
39931;DHT22;26635;-35.248;149.138;2022-08-14T01:06:20;9.80;93.00
39931;DHT22;26635;-35.248;149.138;2022-08-14T01:09:01;9.90;93.10
39931;DHT22;26635;-35.248;149.138;2022-08-14T01:11:32;10.00;93.10
39931;DHT22;26635;-35.248;149.138;2022-08-14T01:14:04;10.20;93.00
39931;DHT22;26635;-35.248;149.138;2022-08-14T01:16:54;10.50;91.80
39931;DHT22;26635;-35.248;149.138;2022-08-14T01:19:38;10.60;90.20
39931;DHT22;26635;-35.248;149.138;2022-08-14T01:23:00;10.80;89.10
39931;DHT22;26635;-35.248;149.138;2022-08-14T01:25:49;11.10;89.10
39931;DHT22;26635;-35.248;149.138;2022-08-14T01:28:20;11.40;87.50
39931;DHT22;26635;-35.248;149.138;2022-08-14T01:31:15;11.30;85.20
39931;DHT22;26635;-35.248;149.138;2022-08-14T01:33:48;11.20;84.80
39931;DHT22;26635;-35.248;149.138;2022-08-14T01:36:39;11.20;85.80
39931;DHT22;26635;-35.248;149.138;2022-08-14T01:39:16;11.20;87.80
39931;DHT22;26635;-35.248;149.138;2022-08-14T01:41:48;11.20;87.50
39931;DHT22;26635;-35.248;149.138;2022-08-14T01:44:27;11.10;87.00
39931;DHT22;26635;-35.248;149.138;2022-08-14T01:47:10;11.00;86.90
39931;DHT22;26635;-35.248;149.138;2022-08-14T01:49:53;10.90;87.10
39931;DHT22;26635;-35.248;149.138;2022-08-14T01:52:37;10.80;88.70
39931;DHT22;26635;-35.248;149.138;2022-08-14T01:55:32;10.80;88.70
39931;DHT22;26635;-35.248;149.138;2022-08-14T01:58:05;10.70;88.80
39931;DHT22;26635;-35.248;149.138;2022-08-14T02:00:48;10.60;90.20
39931;DHT22;26635;-35.248;149.138;2022-08-14T02:03:27;10.50;89.70
39931;DHT22;26635;-35.248;149.138;2022-08-14T02:06:07;10.50;90.30
39931;DHT22;26635;-35.248;149.138;2022-08-14T02:08:57;10.40;90.20
39931;DHT22;26635;-35.248;149.138;2022-08-14T02:11:31;10.30;90.20
39931;DHT22;26635;-35.248;149.138;2022-08-14T02:14:07;10.20;90.80
39931;DHT22;26635;-35.248;149.138;2022-08-14T02:16:45;10.20;91.40
39931;DHT22;26635;-35.248;149.138;2022-08-14T02:19:19;10.10;91.60
39931;DHT22;26635;-35.248;149.138;2022-08-14T02:21:53;10.10;90.80
39931;DHT22;26635;-35.248;149.138;2022-08-14T02:24:30;10.10;91.20
39931;DHT22;26635;-35.248;149.138;2022-08-14T02:30:42;10.20;91.70
39931;DHT22;26635;-35.248;149.138;2022-08-14T02:33:13;10.50;91.80
39931;DHT22;26635;-35.248;149.138;2022-08-14T02:35:44;10.70;91.80
39931;DHT22;26635;-35.248;149.138;2022-08-14T02:38:32;10.90;90.40
39931;DHT22;26635;-35.248;149.138;2022-08-14T02:41:11;10.90;89.10
39931;DHT22;26635;-35.248;149.138;2022-08-14T02:43:43;11.00;89.40
39931;DHT22;26635;-35.248;149.138;2022-08-14T02:46:15;11.20;90.30
39931;DHT22;26635;-35.248;149.138;2022-08-14T02:48:51;11.50;90.10
39931;DHT22;26635;-35.248;149.138;2022-08-14T02:51:33;11.70;88.60
39931;DHT22;26635;-35.248;149.138;2022-08-14T02:54:08;11.90;87.00
39931;DHT22;26635;-35.248;149.138;2022-08-14T02:56:46;11.90;86.60
39931;DHT22;26635;-35.248;149.138;2022-08-14T02:59:37;11.80;86.50
39931;DHT22;26635;-35.248;149.138;2022-08-14T03:02:10;11.70;87.00
39931;DHT22;26635;-35.248;149.138;2022-08-14T03:05:01;11.50;87.10
39931;DHT22;26635;-35.248;149.138;2022-08-14T03:07:32;11.30;89.60
39931;DHT22;26635;-35.248;149.138;2022-08-14T03:10:03;11.10;88.90
39931;DHT22;26635;-35.248;149.138;2022-08-14T03:12:55;11.00;90.20
39931;DHT22;26635;-35.248;149.138;2022-08-14T03:15:27;10.80;90.80
39931;DHT22;26635;-35.248;149.138;2022-08-14T03:18:01;10.60;91.10
39931;DHT22;26635;-35.248;149.138;2022-08-14T03:20:32;10.50;91.50
39931;DHT22;26635;-35.248;149.138;2022-08-14T03:23:07;10.30;92.00
39931;DHT22;26635;-35.248;149.138;2022-08-14T03:25:38;10.10;92.10
39931;DHT22;26635;-35.248;149.138;2022-08-14T03:28:12;10.00;92.60
39931;DHT22;26635;-35.248;149.138;2022-08-14T03:31:00;9.90;92.60
39931;DHT22;26635;-35.248;149.138;2022-08-14T03:33:37;9.80;93.20
39931;DHT22;26635;-35.248;149.138;2022-08-14T03:36:13;9.80;93.20
39931;DHT22;26635;-35.248;149.138;2022-08-14T03:39:07;9.90;93.80
39931;DHT22;26635;-35.248;149.138;2022-08-14T03:41:55;10.00;93.50
39931;DHT22;26635;-35.248;149.138;2022-08-14T03:44:28;10.10;93.20
39931;DHT22;26635;-35.248;149.138;2022-08-14T03:47:20;10.20;92.90
39931;DHT22;26635;-35.248;149.138;2022-08-14T03:50:12;10.40;93.00
39931;DHT22;26635;-35.248;149.138;2022-08-14T03:52:59;10.60;91.90
39931;DHT22;26635;-35.248;149.138;2022-08-14T03:55:30;10.70;91.80
39931;DHT22;26635;-35.248;149.138;2022-08-14T03:58:01;10.70;90.60
39931;DHT22;26635;-35.248;149.138;2022-08-14T04:00:33;10.70;90.20
39931;DHT22;26635;-35.248;149.138;2022-08-14T04:03:11;10.70;90.00
39931;DHT22;26635;-35.248;149.138;2022-08-14T04:05:51;10.50;90.20
39931;DHT22;26635;-35.248;149.138;2022-08-14T04:08:27;10.40;90.30
39931;DHT22;26635;-35.248;149.138;2022-08-14T04:10:59;10.30;90.30
39931;DHT22;26635;-35.248;149.138;2022-08-14T04:13:39;10.30;91.10
39931;DHT22;26635;-35.248;149.138;2022-08-14T04:16:17;10.30;91.30
39931;DHT22;26635;-35.248;149.138;2022-08-14T04:18:59;10.40;91.40
39931;DHT22;26635;-35.248;149.138;2022-08-14T04:21:34;10.50;90.60
39931;DHT22;26635;-35.248;149.138;2022-08-14T04:24:24;10.50;90.40
39931;DHT22;26635;-35.248;149.138;2022-08-14T04:26:55;10.50;90.30
39931;DHT22;26635;-35.248;149.138;2022-08-14T04:29:25;10.50;90.40
39931;DHT22;26635;-35.248;149.138;2022-08-14T04:31:59;10.50;90.60
39931;DHT22;26635;-35.248;149.138;2022-08-14T04:34:51;10.50;90.90
39931;DHT22;26635;-35.248;149.138;2022-08-14T04:37:23;10.40;90.10
39931;DHT22;26635;-35.248;149.138;2022-08-14T04:40:13;10.40;89.90
39931;DHT22;26635;-35.248;149.138;2022-08-14T04:43:07;10.30;90.10
39931;DHT22;26635;-35.248;149.138;2022-08-14T04:46:17;10.30;90.50
39931;DHT22;26635;-35.248;149.138;2022-08-14T04:49:08;10.20;90.60
39931;DHT22;26635;-35.248;149.138;2022-08-14T04:51:45;10.10;91.70
39931;DHT22;26635;-35.248;149.138;2022-08-14T04:54:24;10.00;92.00
39931;DHT22;26635;-35.248;149.138;2022-08-14T04:56:57;9.90;91.90
39931;DHT22;26635;-35.248;149.138;2022-08-14T04:59:32;9.90;92.40
39931;DHT22;26635;-35.248;149.138;2022-08-14T05:02:09;10.00;92.90
39931;DHT22;26635;-35.248;149.138;2022-08-14T05:04:40;10.00;92.80
39931;DHT22;26635;-35.248;149.138;2022-08-14T05:07:23;10.00;92.60
39931;DHT22;26635;-35.248;149.138;2022-08-14T05:10:14;10.00;92.90
39931;DHT22;26635;-35.248;149.138;2022-08-14T05:12:52;10.00;92.50
39931;DHT22;26635;-35.248;149.138;2022-08-14T05:15:44;10.00;92.90
39931;DHT22;26635;-35.248;149.138;2022-08-14T05:18:22;10.00;93.10
39931;DHT22;26635;-35.248;149.138;2022-08-14T05:21:13;10.00;92.90
39931;DHT22;26635;-35.248;149.138;2022-08-14T05:24:03;10.00;93.50
39931;DHT22;26635;-35.248;149.138;2022-08-14T05:26:44;10.00;93.50
39931;DHT22;26635;-35.248;149.138;2022-08-14T05:29:15;10.00;93.40
39931;DHT22;26635;-35.248;149.138;2022-08-14T05:31:57;10.00;94.00
39931;DHT22;26635;-35.248;149.138;2022-08-14T05:34:58;10.00;93.40
39931;DHT22;26635;-35.248;149.138;2022-08-14T05:37:36;9.90;93.60
39931;DHT22;26635;-35.248;149.138;2022-08-14T05:40:13;9.90;93.50
39931;DHT22;26635;-35.248;149.138;2022-08-14T05:42:45;9.80;93.30
39931;DHT22;26635;-35.248;149.138;2022-08-14T05:45:25;9.70;93.60
39931;DHT22;26635;-35.248;149.138;2022-08-14T05:47:58;9.70;93.70
39931;DHT22;26635;-35.248;149.138;2022-08-14T05:50:28;9.70;93.50
39931;DHT22;26635;-35.248;149.138;2022-08-14T05:53:00;9.70;93.70
39931;DHT22;26635;-35.248;149.138;2022-08-14T05:55:31;9.70;93.70
39931;DHT22;26635;-35.248;149.138;2022-08-14T05:58:09;9.70;93.50
39931;DHT22;26635;-35.248;149.138;2022-08-14T06:00:41;9.60;93.50
39931;DHT22;26635;-35.248;149.138;2022-08-14T06:03:16;9.60;93.50
39931;DHT22;26635;-35.248;149.138;2022-08-14T06:05:50;9.60;93.40
39931;DHT22;26635;-35.248;149.138;2022-08-14T06:08:30;9.60;93.60
39931;DHT22;26635;-35.248;149.138;2022-08-14T06:11:09;9.50;93.80
39931;DHT22;26635;-35.248;149.138;2022-08-14T06:14:01;9.50;93.80
39931;DHT22;26635;-35.248;149.138;2022-08-14T06:16:39;9.60;93.70
39931;DHT22;26635;-35.248;149.138;2022-08-14T06:19:12;9.60;93.40
39931;DHT22;26635;-35.248;149.138;2022-08-14T06:21:48;9.50;93.70
39931;DHT22;26635;-35.248;149.138;2022-08-14T06:24:30;9.50;93.70
39931;DHT22;26635;-35.248;149.138;2022-08-14T06:27:03;9.50;93.60
39931;DHT22;26635;-35.248;149.138;2022-08-14T06:29:38;9.50;93.40
39931;DHT22;26635;-35.248;149.138;2022-08-14T06:32:08;9.50;93.30
39931;DHT22;26635;-35.248;149.138;2022-08-14T06:35:00;9.50;92.80
39931;DHT22;26635;-35.248;149.138;2022-08-14T06:37:41;9.40;93.20
39931;DHT22;26635;-35.248;149.138;2022-08-14T06:40:18;9.40;93.40
39931;DHT22;26635;-35.248;149.138;2022-08-14T06:43:11;9.40;93.60
39931;DHT22;26635;-35.248;149.138;2022-08-14T06:45:46;9.40;94.00
39931;DHT22;26635;-35.248;149.138;2022-08-14T06:48:24;9.30;94.20
39931;DHT22;26635;-35.248;149.138;2022-08-14T06:50:59;9.20;94.40
39931;DHT22;26635;-35.248;149.138;2022-08-14T06:53:30;9.20;94.50
39931;DHT22;26635;-35.248;149.138;2022-08-14T06:56:02;9.10;94.60
39931;DHT22;26635;-35.248;149.138;2022-08-14T06:58:33;9.10;94.80
39931;DHT22;26635;-35.248;149.138;2022-08-14T07:01:03;9.00;95.30
39931;DHT22;26635;-35.248;149.138;2022-08-14T07:03:56;9.00;95.10
39931;DHT22;26635;-35.248;149.138;2022-08-14T07:06:54;9.00;94.90
39931;DHT22;26635;-35.248;149.138;2022-08-14T07:09:28;9.00;95.10
39931;DHT22;26635;-35.248;149.138;2022-08-14T07:12:17;8.90;94.90
39931;DHT22;26635;-35.248;149.138;2022-08-14T07:15:08;8.90;95.00
39931;DHT22;26635;-35.248;149.138;2022-08-14T07:17:46;8.90;94.60
39931;DHT22;26635;-35.248;149.138;2022-08-14T07:20:20;8.90;94.20
39931;DHT22;26635;-35.248;149.138;2022-08-14T07:23:04;8.90;94.40
39931;DHT22;26635;-35.248;149.138;2022-08-14T07:25:40;8.90;94.40
39931;DHT22;26635;-35.248;149.138;2022-08-14T07:28:29;8.80;94.20
39931;DHT22;26635;-35.248;149.138;2022-08-14T07:31:04;8.80;94.10
39931;DHT22;26635;-35.248;149.138;2022-08-14T07:33:41;8.80;94.40
39931;DHT22;26635;-35.248;149.138;2022-08-14T07:36:19;8.80;94.50
39931;DHT22;26635;-35.248;149.138;2022-08-14T07:39:01;8.70;94.30
39931;DHT22;26635;-35.248;149.138;2022-08-14T07:41:40;8.70;94.10
39931;DHT22;26635;-35.248;149.138;2022-08-14T07:44:13;8.70;93.80
39931;DHT22;26635;-35.248;149.138;2022-08-14T07:47:03;8.70;93.90
39931;DHT22;26635;-35.248;149.138;2022-08-14T07:49:37;8.70;94.00
39931;DHT22;26635;-35.248;149.138;2022-08-14T07:52:10;8.70;94.30
39931;DHT22;26635;-35.248;149.138;2022-08-14T07:54:49;8.70;94.20
39931;DHT22;26635;-35.248;149.138;2022-08-14T07:57:20;8.60;93.70
39931;DHT22;26635;-35.248;149.138;2022-08-14T07:59:52;8.70;93.70
39931;DHT22;26635;-35.248;149.138;2022-08-14T08:02:29;8.60;93.60
39931;DHT22;26635;-35.248;149.138;2022-08-14T08:05:08;8.70;93.70
39931;DHT22;26635;-35.248;149.138;2022-08-14T08:07:44;8.60;93.20
39931;DHT22;26635;-35.248;149.138;2022-08-14T08:10:21;8.60;93.40
39931;DHT22;26635;-35.248;149.138;2022-08-14T08:13:21;8.60;92.60
39931;DHT22;26635;-35.248;149.138;2022-08-14T08:15:56;8.60;93.30
39931;DHT22;26635;-35.248;149.138;2022-08-14T08:18:34;8.60;93.30
39931;DHT22;26635;-35.248;149.138;2022-08-14T08:21:07;8.60;93.20
39931;DHT22;26635;-35.248;149.138;2022-08-14T08:23:39;8.60;92.90
39931;DHT22;26635;-35.248;149.138;2022-08-14T08:26:18;8.60;92.90
39931;DHT22;26635;-35.248;149.138;2022-08-14T08:28:58;8.70;93.50
39931;DHT22;26635;-35.248;149.138;2022-08-14T08:31:29;8.70;93.60
39931;DHT22;26635;-35.248;149.138;2022-08-14T08:34:04;8.70;93.80
39931;DHT22;26635;-35.248;149.138;2022-08-14T08:36:45;8.70;93.50
39931;DHT22;26635;-35.248;149.138;2022-08-14T08:39:16;8.70;92.70
39931;DHT22;26635;-35.248;149.138;2022-08-14T08:41:50;8.70;92.80
39931;DHT22;26635;-35.248;149.138;2022-08-14T08:44:27;8.70;92.60
39931;DHT22;26635;-35.248;149.138;2022-08-14T08:47:02;8.80;92.60
39931;DHT22;26635;-35.248;149.138;2022-08-14T08:49:44;8.80;92.30
39931;DHT22;26635;-35.248;149.138;2022-08-14T08:52:49;8.70;92.10
39931;DHT22;26635;-35.248;149.138;2022-08-14T08:55:30;8.70;92.10
39931;DHT22;26635;-35.248;149.138;2022-08-14T08:58:08;8.80;92.60
39931;DHT22;26635;-35.248;149.138;2022-08-14T09:00:49;8.80;92.10
39931;DHT22;26635;-35.248;149.138;2022-08-14T09:03:24;8.80;92.10
39931;DHT22;26635;-35.248;149.138;2022-08-14T09:06:02;8.80;92.10
39931;DHT22;26635;-35.248;149.138;2022-08-14T09:08:54;8.80;92.10
39931;DHT22;26635;-35.248;149.138;2022-08-14T09:11:24;8.80;92.20
39931;DHT22;26635;-35.248;149.138;2022-08-14T09:13:55;8.80;91.90
39931;DHT22;26635;-35.248;149.138;2022-08-14T09:16:26;8.80;92.10
39931;DHT22;26635;-35.248;149.138;2022-08-14T09:18:59;8.80;92.40
39931;DHT22;26635;-35.248;149.138;2022-08-14T09:21:32;8.80;92.30
39931;DHT22;26635;-35.248;149.138;2022-08-14T09:24:07;8.70;92.20
39931;DHT22;26635;-35.248;149.138;2022-08-14T09:26:59;8.70;92.60
39931;DHT22;26635;-35.248;149.138;2022-08-14T09:29:33;8.70;92.60
39931;DHT22;26635;-35.248;149.138;2022-08-14T09:32:27;8.70;92.60
39931;DHT22;26635;-35.248;149.138;2022-08-14T09:41:36;8.60;92.90
39931;DHT22;26635;-35.248;149.138;2022-08-14T09:44:55;8.60;92.60
39931;DHT22;26635;-35.248;149.138;2022-08-14T09:47:49;8.60;92.50
39931;DHT22;26635;-35.248;149.138;2022-08-14T09:50:26;8.60;92.60
39931;DHT22;26635;-35.248;149.138;2022-08-14T09:53:06;8.60;92.30
39931;DHT22;26635;-35.248;149.138;2022-08-14T09:55:56;8.60;92.20
39931;DHT22;26635;-35.248;149.138;2022-08-14T09:58:38;8.60;92.30
39931;DHT22;26635;-35.248;149.138;2022-08-14T10:01:16;8.60;92.60
39931;DHT22;26635;-35.248;149.138;2022-08-14T10:03:53;8.60;92.70
39931;DHT22;26635;-35.248;149.138;2022-08-14T10:06:28;8.60;93.20
39931;DHT22;26635;-35.248;149.138;2022-08-14T10:09:04;8.60;93.00
39931;DHT22;26635;-35.248;149.138;2022-08-14T10:11:56;8.60;93.30
39931;DHT22;26635;-35.248;149.138;2022-08-14T10:14:33;8.60;93.60
39931;DHT22;26635;-35.248;149.138;2022-08-14T10:17:04;8.60;93.80
39931;DHT22;26635;-35.248;149.138;2022-08-14T10:19:47;8.60;94.10
39931;DHT22;26635;-35.248;149.138;2022-08-14T10:22:24;8.60;93.90
39931;DHT22;26635;-35.248;149.138;2022-08-14T10:25:20;8.60;94.60
39931;DHT22;26635;-35.248;149.138;2022-08-14T10:27:57;8.50;94.60
39931;DHT22;26635;-35.248;149.138;2022-08-14T10:30:33;8.50;94.90
39931;DHT22;26635;-35.248;149.138;2022-08-14T10:33:07;8.50;94.80
39931;DHT22;26635;-35.248;149.138;2022-08-14T10:35:44;8.50;94.80
39931;DHT22;26635;-35.248;149.138;2022-08-14T10:38:32;8.50;94.90
39931;DHT22;26635;-35.248;149.138;2022-08-14T10:41:10;8.50;95.10
39931;DHT22;26635;-35.248;149.138;2022-08-14T10:43:43;8.50;95.30
39931;DHT22;26635;-35.248;149.138;2022-08-14T10:46:16;8.50;95.20
39931;DHT22;26635;-35.248;149.138;2022-08-14T10:49:17;8.50;95.20
39931;DHT22;26635;-35.248;149.138;2022-08-14T10:52:03;8.50;95.20
39931;DHT22;26635;-35.248;149.138;2022-08-14T10:54:42;8.50;95.00
39931;DHT22;26635;-35.248;149.138;2022-08-14T10:59:55;8.50;94.70
39931;DHT22;26635;-35.248;149.138;2022-08-14T11:02:31;8.50;94.50
39931;DHT22;26635;-35.248;149.138;2022-08-14T11:05:24;8.50;94.80
39931;DHT22;26635;-35.248;149.138;2022-08-14T11:07:58;8.50;95.00
39931;DHT22;26635;-35.248;149.138;2022-08-14T11:10:55;8.50;95.00
39931;DHT22;26635;-35.248;149.138;2022-08-14T11:13:28;8.50;95.10
39931;DHT22;26635;-35.248;149.138;2022-08-14T11:16:00;8.50;95.30
39931;DHT22;26635;-35.248;149.138;2022-08-14T11:18:30;8.40;94.80
39931;DHT22;26635;-35.248;149.138;2022-08-14T11:21:07;8.40;94.80
39931;DHT22;26635;-35.248;149.138;2022-08-14T11:23:38;8.40;94.90
39931;DHT22;26635;-35.248;149.138;2022-08-14T11:26:12;8.40;94.70
39931;DHT22;26635;-35.248;149.138;2022-08-14T11:28:46;8.40;95.00
39931;DHT22;26635;-35.248;149.138;2022-08-14T11:31:22;8.40;94.60
39931;DHT22;26635;-35.248;149.138;2022-08-14T11:34:02;8.40;94.80
39931;DHT22;26635;-35.248;149.138;2022-08-14T11:36:37;8.50;94.50
39931;DHT22;26635;-35.248;149.138;2022-08-14T11:39:28;8.50;94.50
39931;DHT22;26635;-35.248;149.138;2022-08-14T11:42:17;8.50;94.20
39931;DHT22;26635;-35.248;149.138;2022-08-14T11:45:09;8.50;94.20
39931;DHT22;26635;-35.248;149.138;2022-08-14T11:47:45;8.50;94.00
39931;DHT22;26635;-35.248;149.138;2022-08-14T11:50:36;8.50;93.80
39931;DHT22;26635;-35.248;149.138;2022-08-14T11:53:17;8.50;93.80
39931;DHT22;26635;-35.248;149.138;2022-08-14T11:55:55;8.50;93.60
39931;DHT22;26635;-35.248;149.138;2022-08-14T11:58:26;8.50;93.40
39931;DHT22;26635;-35.248;149.138;2022-08-14T12:01:00;8.50;93.60
39931;DHT22;26635;-35.248;149.138;2022-08-14T12:04:16;8.50;93.40
39931;DHT22;26635;-35.248;149.138;2022-08-14T12:07:00;8.60;93.40
39931;DHT22;26635;-35.248;149.138;2022-08-14T12:09:37;8.60;93.40
39931;DHT22;26635;-35.248;149.138;2022-08-14T12:12:28;8.60;92.90
39931;DHT22;26635;-35.248;149.138;2022-08-14T12:15:05;8.60;93.20
39931;DHT22;26635;-35.248;149.138;2022-08-14T12:17:46;8.70;93.40
39931;DHT22;26635;-35.248;149.138;2022-08-14T12:20:33;8.70;93.10
39931;DHT22;26635;-35.248;149.138;2022-08-14T12:23:24;8.70;92.80
39931;DHT22;26635;-35.248;149.138;2022-08-14T12:26:06;8.70;92.80
39931;DHT22;26635;-35.248;149.138;2022-08-14T12:29:26;8.80;92.60
39931;DHT22;26635;-35.248;149.138;2022-08-14T12:32:03;8.80;92.30
39931;DHT22;26635;-35.248;149.138;2022-08-14T12:34:35;8.80;92.50
39931;DHT22;26635;-35.248;149.138;2022-08-14T12:37:12;8.80;92.20
39931;DHT22;26635;-35.248;149.138;2022-08-14T12:39:44;8.80;92.30
39931;DHT22;26635;-35.248;149.138;2022-08-14T12:42:15;8.80;92.30
39931;DHT22;26635;-35.248;149.138;2022-08-14T12:45:01;8.80;92.30
39931;DHT22;26635;-35.248;149.138;2022-08-14T12:47:32;8.80;91.90
39931;DHT22;26635;-35.248;149.138;2022-08-14T12:50:05;8.80;91.80
39931;DHT22;26635;-35.248;149.138;2022-08-14T12:52:42;8.80;91.40
39931;DHT22;26635;-35.248;149.138;2022-08-14T12:55:34;8.80;91.40
39931;DHT22;26635;-35.248;149.138;2022-08-14T12:58:29;8.80;91.30
39931;DHT22;26635;-35.248;149.138;2022-08-14T13:01:30;8.80;91.20
39931;DHT22;26635;-35.248;149.138;2022-08-14T13:04:20;8.80;91.00
39931;DHT22;26635;-35.248;149.138;2022-08-14T13:06:51;8.80;91.00
39931;DHT22;26635;-35.248;149.138;2022-08-14T13:09:21;8.80;91.00
39931;DHT22;26635;-35.248;149.138;2022-08-14T13:12:05;8.80;90.50
39931;DHT22;26635;-35.248;149.138;2022-08-14T13:14:57;8.80;90.60
39931;DHT22;26635;-35.248;149.138;2022-08-14T13:20:12;8.80;90.70
39931;DHT22;26635;-35.248;149.138;2022-08-14T13:22:53;8.80;90.50
39931;DHT22;26635;-35.248;149.138;2022-08-14T13:25:27;8.80;90.90
39931;DHT22;26635;-35.248;149.138;2022-08-14T13:28:02;8.90;90.40
39931;DHT22;26635;-35.248;149.138;2022-08-14T13:30:39;8.80;90.60
39931;DHT22;26635;-35.248;149.138;2022-08-14T13:33:10;8.80;90.60
39931;DHT22;26635;-35.248;149.138;2022-08-14T13:35:44;8.80;90.50
39931;DHT22;26635;-35.248;149.138;2022-08-14T13:38:19;8.90;90.50
39931;DHT22;26635;-35.248;149.138;2022-08-14T13:41:13;8.80;90.60
39931;DHT22;26635;-35.248;149.138;2022-08-14T13:43:48;8.80;90.60
39931;DHT22;26635;-35.248;149.138;2022-08-14T13:46:27;8.80;90.70
39931;DHT22;26635;-35.248;149.138;2022-08-14T13:48:58;8.80;91.10
39931;DHT22;26635;-35.248;149.138;2022-08-14T13:51:32;8.80;91.50
39931;DHT22;26635;-35.248;149.138;2022-08-14T13:54:06;8.70;91.40
39931;DHT22;26635;-35.248;149.138;2022-08-14T13:56:39;8.70;91.40
39931;DHT22;26635;-35.248;149.138;2022-08-14T13:59:10;8.70;91.80
39931;DHT22;26635;-35.248;149.138;2022-08-14T14:02:04;8.70;91.50
39931;DHT22;26635;-35.248;149.138;2022-08-14T14:04:45;8.60;92.20
39931;DHT22;26635;-35.248;149.138;2022-08-14T14:07:20;8.60;91.80
39931;DHT22;26635;-35.248;149.138;2022-08-14T14:10:02;8.60;91.60
39931;DHT22;26635;-35.248;149.138;2022-08-14T14:12:52;8.60;91.70
39931;DHT22;26635;-35.248;149.138;2022-08-14T14:15:43;8.50;91.90
39931;DHT22;26635;-35.248;149.138;2022-08-14T14:18:51;8.50;91.90
39931;DHT22;26635;-35.248;149.138;2022-08-14T14:21:28;8.50;92.10
39931;DHT22;26635;-35.248;149.138;2022-08-14T14:24:01;8.50;92.30
39931;DHT22;26635;-35.248;149.138;2022-08-14T14:26:32;8.50;91.80
39931;DHT22;26635;-35.248;149.138;2022-08-14T14:29:05;8.50;92.00
39931;DHT22;26635;-35.248;149.138;2022-08-14T14:31:36;8.50;92.30
39931;DHT22;26635;-35.248;149.138;2022-08-14T14:34:08;8.50;92.20
39931;DHT22;26635;-35.248;149.138;2022-08-14T14:36:57;8.50;92.40
39931;DHT22;26635;-35.248;149.138;2022-08-14T14:39:33;8.50;92.30
39931;DHT22;26635;-35.248;149.138;2022-08-14T14:42:27;8.50;92.60
39931;DHT22;26635;-35.248;149.138;2022-08-14T14:45:12;8.50;92.60
39931;DHT22;26635;-35.248;149.138;2022-08-14T14:47:49;8.40;92.40
39931;DHT22;26635;-35.248;149.138;2022-08-14T14:50:26;8.40;92.40
39931;DHT22;26635;-35.248;149.138;2022-08-14T14:52:59;8.40;92.90
39931;DHT22;26635;-35.248;149.138;2022-08-14T14:55:41;8.40;92.70
39931;DHT22;26635;-35.248;149.138;2022-08-14T14:58:34;8.40;92.60
39931;DHT22;26635;-35.248;149.138;2022-08-14T15:01:05;8.30;92.70
39931;DHT22;26635;-35.248;149.138;2022-08-14T15:03:38;8.30;92.70
39931;DHT22;26635;-35.248;149.138;2022-08-14T15:06:12;8.20;92.60
39931;DHT22;26635;-35.248;149.138;2022-08-14T15:08:47;8.20;92.80
39931;DHT22;26635;-35.248;149.138;2022-08-14T15:11:27;8.20;92.90
39931;DHT22;26635;-35.248;149.138;2022-08-14T15:13:59;8.30;93.10
39931;DHT22;26635;-35.248;149.138;2022-08-14T15:16:50;8.20;93.20
39931;DHT22;26635;-35.248;149.138;2022-08-14T15:19:26;8.30;93.20
39931;DHT22;26635;-35.248;149.138;2022-08-14T15:21:57;8.30;93.40
39931;DHT22;26635;-35.248;149.138;2022-08-14T15:24:29;8.30;93.60
39931;DHT22;26635;-35.248;149.138;2022-08-14T15:27:01;8.20;93.60
39931;DHT22;26635;-35.248;149.138;2022-08-14T15:29:35;8.20;93.90
39931;DHT22;26635;-35.248;149.138;2022-08-14T15:32:10;8.20;93.90
39931;DHT22;26635;-35.248;149.138;2022-08-14T15:34:43;8.10;94.00
39931;DHT22;26635;-35.248;149.138;2022-08-14T15:37:19;8.10;94.00
39931;DHT22;26635;-35.248;149.138;2022-08-14T15:40:00;8.10;94.10
39931;DHT22;26635;-35.248;149.138;2022-08-14T15:42:48;8.10;94.20
39931;DHT22;26635;-35.248;149.138;2022-08-14T15:45:18;8.10;94.30
39931;DHT22;26635;-35.248;149.138;2022-08-14T15:47:51;8.00;94.50
39931;DHT22;26635;-35.248;149.138;2022-08-14T15:50:24;8.00;94.40
39931;DHT22;26635;-35.248;149.138;2022-08-14T15:52:57;8.10;94.40
39931;DHT22;26635;-35.248;149.138;2022-08-14T15:55:28;8.10;94.40
39931;DHT22;26635;-35.248;149.138;2022-08-14T15:57:59;8.10;94.30
39931;DHT22;26635;-35.248;149.138;2022-08-14T16:00:34;8.10;94.30
39931;DHT22;26635;-35.248;149.138;2022-08-14T16:03:24;8.10;94.30
39931;DHT22;26635;-35.248;149.138;2022-08-14T16:06:09;8.20;94.40
39931;DHT22;26635;-35.248;149.138;2022-08-14T16:08:49;8.20;94.20
39931;DHT22;26635;-35.248;149.138;2022-08-14T16:11:26;8.20;94.30
39931;DHT22;26635;-35.248;149.138;2022-08-14T16:14:00;8.20;94.40
39931;DHT22;26635;-35.248;149.138;2022-08-14T16:16:33;8.20;94.50
39931;DHT22;26635;-35.248;149.138;2022-08-14T16:19:20;8.20;94.60
39931;DHT22;26635;-35.248;149.138;2022-08-14T16:21:52;8.20;94.40
39931;DHT22;26635;-35.248;149.138;2022-08-14T16:24:43;8.20;94.50
39931;DHT22;26635;-35.248;149.138;2022-08-14T16:27:29;8.20;94.50